الصفحة الرئيسية
METAR-TAF:

METAR-TAF

مطار :

البحرين, البحرين

مطار البحرين الدولي

دائرة عرض: 26-16N, خط طول: 050-39E, ارتفاع: 2 متر

مراقبة الطقس الحالي

تاريخ ووقت الإصدار 38 دقيقة قبل الساعة 08:00UTC
ريح 9 عقدة من الشمال/الشمال الغربي
درجة الحرارة 20°درجة مئوية
الرطوبة 78%
ضغط 1014 hPa
الرؤية: 7000 متر
مطر

METAR: OBBI 220800Z 34009KT 7000 RA NSC 20/16 Q1014 NOSIG

زمن: 11:38 (08:38 UTC)

توقعات

تاريخ ووقت الإصدار 3ساعات و 38 دقيقة قبل الساعة 05:00UTC
التوقعات صالحة من22 الساعة 06 UTC إلى 23 الساعة 12 UTC
ريح 5 عقدةمن اتجاهات متغيرة
الرؤية: 8000 متر
غيوم متفرقة على ارتفاع 3000 قدم
غيوم مفككة على ارتفاع 9000 قدم
نظرية الاحتمالات 30% :
مؤقت
من 22 الساعة 06 UTC إلى 22 الساعة 12 UTC
ريح 20 عقدةمن اتجاهات متغيرة تتزايد حتى 30 عقدة

TAF: OBBI 220500Z 2206/2312 VRB05KT 8000 SCT030 BKN090 PROB30 TEMPO 2206/2212 VRB20G30KT

أرصاد الطقس والتوقعات من أكثر من 4000 مطار (تقارير الطقس للمطار METAR والتنبؤ بالطقس بالمطارTAF).

المحطات المتاحة هي النقط الصفراء والحمراء على الخريطة.

حرك المؤشر فوق النقطة لمعرفة اسم المحطة.

ثم انقر لمعرفة أرصاد وتوقعات الطقس.

لتغيير الخارطة: اضغط على الأزرار الخضراء مع رمز الصليب الأسود للتكبير. على الزر الأخضر مع شرطة للتصغير، أو على الأسهم الخضراء للخرائط المجاورة.


METAR-TAF: